Time;durP1;ratioP1;P1;durP2;ratioP2;P2;SDS_P1;SDS_P2;PMS_P1;PMS_P2;Temp;Humidity;BMP_temperature;BMP_pressure;BME280_temperature;BME280_humidity;BME280_pressure;Samples;Min_cycle;Max_cycle;Signal;HPM_P1;HPM_P2
2023/04/08 00:00:28;;;;;;;7.50;4.22;;;8.10;99.90;;;;;;7403672;19;19936;-72
2023/04/08 00:02:59;;;;;;;7.82;4.32;;;7.00;99.90;;;;;;7401836;19;19927;-73
2023/04/08 00:05:29;;;;;;;7.97;4.38;;;6.70;99.90;;;;;;7398556;19;20260;-73
2023/04/08 00:07:58;;;;;;;8.63;4.72;;;6.60;99.90;;;;;;7401762;19;19927;-73
2023/04/08 00:10:27;;;;;;;5.60;4.03;;;6.80;99.90;;;;;;7401663;19;19926;-73
2023/04/08 00:13:10;;;;;;;6.43;4.18;;;6.60;99.90;;;;;;7401073;19;20260;-73
2023/04/08 00:15:39;;;;;;;6.28;4.30;;;6.50;99.90;;;;;;7400356;19;19947;-74
2023/04/08 00:18:11;;;;;;;6.68;4.50;;;6.40;99.90;;;;;;7403931;19;19918;-73
2023/04/08 00:20:41;;;;;;;7.97;4.35;;;6.70;99.90;;;;;;7401666;19;20344;-73
2023/04/08 00:23:10;;;;;;;6.57;4.65;;;6.40;99.90;;;;;;7400860;19;19934;-73
2023/04/08 00:25:50;;;;;;;7.68;4.55;;;6.40;99.90;;;;;;7433028;19;20732;-72
2023/04/08 00:28:20;;;;;;;7.47;4.82;;;6.40;99.90;;;;;;7434842;19;19950;-72
2023/04/08 00:30:55;;;;;;;9.48;4.78;;;6.70;99.90;;;;;;7436457;19;19990;-72
2023/04/08 00:33:24;;;;;;;8.52;4.70;;;6.30;99.90;;;;;;7434320;19;19942;-71
2023/04/08 00:35:57;;;;;;;6.20;4.82;;;6.30;99.90;;;;;;7439151;19;19922;-71
2023/04/08 00:38:25;;;;;;;6.57;4.78;;;6.20;99.90;;;;;;7434126;19;19918;-73
2023/04/08 00:40:57;;;;;;;8.48;4.60;;;6.20;99.90;;;;;;7434818;19;20431;-72
2023/04/08 00:43:26;;;;;;;7.63;4.85;;;6.30;99.90;;;;;;7433854;19;19925;-72
2023/04/08 00:45:55;;;;;;;7.53;4.95;;;7.10;99.90;;;;;;7434548;19;19939;-71
2023/04/08 00:48:24;;;;;;;6.57;4.60;;;6.10;99.90;;;;;;7434360;19;19988;-71
2023/04/08 00:50:54;;;;;;;10.48;5.22;;;7.30;99.90;;;;;;7434976;19;19915;-72
2023/04/08 00:53:22;;;;;;;8.52;5.55;;;6.20;99.90;;;;;;7433631;19;19914;-72
2023/04/08 00:55:51;;;;;;;7.63;5.20;;;6.10;99.90;;;;;;7436894;19;20554;-72
2023/04/08 00:58:23;;;;;;;8.35;5.72;;;6.20;99.90;;;;;;7434278;19;19957;-72
2023/04/08 01:00:59;;;;;;;8.15;5.63;;;6.00;99.90;;;;;;7433791;19;19925;-72
2023/04/08 01:03:39;;;;;;;6.40;4.85;;;6.10;99.90;;;;;;7433711;19;19935;-72
2023/04/08 01:06:17;;;;;;;8.00;5.70;;;5.90;99.90;;;;;;7433359;19;19978;-71
2023/04/08 01:08:47;;;;;;;8.60;5.28;;;6.10;99.90;;;;;;7436129;19;20376;-72
2023/04/08 01:11:16;;;;;;;10.30;5.43;;;5.90;99.90;;;;;;7433414;19;19934;-72
2023/04/08 01:13:50;;;;;;;9.15;5.55;;;6.60;99.90;;;;;;7433451;19;19915;-72
2023/04/08 01:16:21;;;;;;;7.25;4.70;;;5.90;99.90;;;;;;7433012;19;19914;-72
2023/04/08 01:19:01;;;;;;;9.18;5.03;;;6.50;99.90;;;;;;7433123;19;19922;-72
2023/04/08 01:21:30;;;;;;;9.77;6.18;;;5.80;99.90;;;;;;7432979;19;19925;-73
2023/04/08 01:24:08;;;;;;;8.35;5.47;;;5.80;99.90;;;;;;7432353;19;19978;-72
2023/04/08 01:26:40;;;;;;;8.05;5.32;;;5.80;99.90;;;;;;7436531;19;19910;-73
2023/04/08 01:29:12;;;;;;;10.60;6.22;;;5.90;99.90;;;;;;7432866;19;19935;-72
2023/04/08 01:31:43;;;;;;;9.05;6.40;;;6.30;99.90;;;;;;7436106;19;19911;-72
2023/04/08 01:34:13;;;;;;;8.48;5.82;;;6.30;99.90;;;;;;7433324;19;20384;-72
2023/04/08 01:36:43;;;;;;;10.48;6.07;;;5.90;99.90;;;;;;7409176;19;20518;-72
2023/04/08 01:39:13;;;;;;;10.18;6.35;;;6.50;99.90;;;;;;7404223;19;19919;-72
2023/04/08 01:41:46;;;;;;;9.80;6.05;;;6.00;99.90;;;;;;7404680;19;19923;-73
2023/04/08 01:44:17;;;;;;;9.18;6.25;;;5.80;99.90;;;;;;7403190;19;19924;-72
2023/04/08 01:46:46;;;;;;;8.75;5.60;;;5.80;99.90;;;;;;7404495;19;20275;-73
2023/04/08 01:49:16;;;;;;;9.77;6.25;;;5.90;99.90;;;;;;7403785;19;20360;-73
2023/04/08 01:51:48;;;;;;;8.80;5.97;;;5.80;99.90;;;;;;7403866;19;19919;-72
2023/04/08 01:54:17;;;;;;;11.45;6.00;;;5.90;99.90;;;;;;7403820;19;19926;-72
2023/04/08 01:56:49;;;;;;;10.45;6.40;;;5.80;99.90;;;;;;7403746;19;20359;-73
2023/04/08 01:59:20;;;;;;;9.23;6.00;;;5.20;99.90;;;;;;7405633;19;19926;-72
2023/04/08 02:01:50;;;;;;;8.48;5.90;;;5.80;99.90;;;;;;7403884;19;19950;-71
2023/04/08 02:04:23;;;;;;;10.95;6.80;;;7.10;99.90;;;;;;7402618;19;19919;-72
2023/04/08 02:06:52;;;;;;;10.68;6.45;;;7.00;99.90;;;;;;7403154;19;20298;-73
2023/04/08 02:09:21;;;;;;;8.60;6.63;;;6.00;99.90;;;;;;7403208;19;20350;-72
2023/04/08 02:11:52;;;;;;;11.55;6.70;;;5.80;99.90;;;;;;7403473;19;19923;-73
2023/04/08 02:14:22;;;;;;;10.18;6.28;;;6.00;99.90;;;;;;7403064;19;19925;-73
2023/04/08 02:16:55;;;;;;;10.75;6.90;;;5.80;99.90;;;;;;7404293;19;19974;-72
2023/04/08 02:19:30;;;;;;;10.75;6.32;;;5.80;99.90;;;;;;7403658;19;19918;-72
2023/04/08 02:22:06;;;;;;;11.07;6.28;;;5.80;99.90;;;;;;7404048;19;19927;-72
2023/04/08 02:24:37;;;;;;;10.63;6.13;;;5.90;99.90;;;;;;7400980;19;20282;-72
2023/04/08 02:27:12;;;;;;;12.88;7.18;;;5.90;99.90;;;;;;7403479;19;19949;-73
2023/04/08 02:29:44;;;;;;;;;;;6.20;99.90;;;;;;7405073;19;19925;-73
2023/04/08 02:32:14;;;;;;;12.70;7.47;;;5.80;99.90;;;;;;7406779;19;19918;-73
2023/04/08 02:34:44;;;;;;;11.52;6.72;;;6.00;99.90;;;;;;7406383;19;19922;-73
2023/04/08 02:37:14;;;;;;;11.02;6.63;;;5.90;99.90;;;;;;7402500;19;19942;-73
2023/04/08 02:39:43;;;;;;;12.05;7.20;;;5.80;99.90;;;;;;7402379;19;19911;-73
2023/04/08 02:42:15;;;;;;;12.68;7.28;;;5.90;99.90;;;;;;7402404;19;19941;-73
2023/04/08 02:44:44;;;;;;;10.88;6.70;;;5.80;99.90;;;;;;7401475;19;20276;-72
2023/04/08 02:47:13;;;;;;;14.20;7.32;;;5.90;99.90;;;;;;7399914;19;20459;-72
2023/04/08 02:49:42;;;;;;;13.18;7.15;;;5.90;99.90;;;;;;7402804;19;19982;-72
2023/04/08 02:52:11;;;;;;;12.63;7.80;;;7.70;99.90;;;;;;7401591;19;19935;-72
2023/04/08 02:54:40;;;;;;;11.52;6.88;;;5.70;99.90;;;;;;7402256;19;19922;-72
2023/04/08 02:57:09;;;;;;;14.15;7.40;;;5.70;99.90;;;;;;7402820;19;19915;-72
2023/04/08 02:59:41;;;;;;;12.32;7.75;;;5.70;99.90;;;;;;7404447;19;19963;-71
2023/04/08 03:02:10;;;;;;;14.50;8.65;;;5.70;99.90;;;;;;7405340;19;19957;-71
2023/04/08 03:04:39;;;;;;;15.98;7.75;;;5.80;99.90;;;;;;7401533;19;19910;-71
2023/04/08 03:07:09;;;;;;;15.73;8.82;;;6.20;99.90;;;;;;7402628;19;19929;-72
2023/04/08 03:09:38;;;;;;;12.38;8.45;;;6.50;99.90;;;;;;7402070;19;20647;-72
2023/04/08 03:12:07;;;;;;;13.02;7.40;;;5.70;99.90;;;;;;7401794;19;20328;-72
2023/04/08 03:14:36;;;;;;;12.20;7.60;;;5.60;99.90;;;;;;7401900;19;19918;-72
2023/04/08 03:17:08;;;;;;;12.05;7.43;;;5.70;99.90;;;;;;7401166;19;19915;-71
2023/04/08 03:19:37;;;;;;;14.07;7.93;;;6.40;99.90;;;;;;7401343;19;19923;-72
2023/04/08 03:22:08;;;;;;;14.52;7.75;;;6.60;99.90;;;;;;7402067;19;19977;-72
2023/04/08 03:24:37;;;;;;;12.30;7.47;;;5.80;99.90;;;;;;7399201;19;19947;-72
2023/04/08 03:27:07;;;;;;;14.55;8.30;;;5.60;99.90;;;;;;7401618;19;19942;-71
2023/04/08 03:29:36;;;;;;;14.32;8.20;;;5.50;99.90;;;;;;7400924;19;20344;-72
2023/04/08 03:32:08;;;;;;;13.15;8.32;;;6.70;99.90;;;;;;7405749;19;19922;-71
2023/04/08 03:34:37;;;;;;;;;;;6.60;99.90;;;;;;7404072;19;20507;-71
2023/04/08 03:37:06;;;;;;;14.35;7.38;;;5.40;99.90;;;;;;7401272;19;19933;-72
2023/04/08 03:39:35;;;;;;;13.43;8.27;;;5.40;99.90;;;;;;7401050;19;19938;-72
2023/04/08 03:42:05;;;;;;;11.85;7.40;;;6.10;99.90;;;;;;7403424;19;20067;-72
2023/04/08 03:44:34;;;;;;;14.93;8.82;;;6.90;99.90;;;;;;7400743;19;19938;-73
2023/04/08 03:47:03;;;;;;;15.60;9.05;;;6.10;99.90;;;;;;7401315;19;19950;-72
2023/04/08 03:49:35;;;;;;;13.40;7.88;;;5.30;99.90;;;;;;7401261;19;20335;-72
2023/04/08 03:52:04;;;;;;;15.63;8.52;;;5.90;99.90;;;;;;7404843;19;19923;-71
2023/04/08 03:54:34;;;;;;;12.90;8.07;;;5.30;99.90;;;;;;7399963;19;20312;-72
2023/04/08 03:57:03;;;;;;;12.43;7.60;;;5.30;99.90;;;;;;7400407;19;19911;-72
2023/04/08 03:59:32;;;;;;;14.75;7.85;;;4.80;99.90;;;;;;7402463;19;19919;-72
2023/04/08 04:02:01;;;;;;;12.48;8.05;;;5.40;99.90;;;;;;7403489;19;19966;-72
2023/04/08 04:04:30;;;;;;;13.25;8.23;;;6.00;99.90;;;;;;7401018;19;19922;-72
2023/04/08 04:07:02;;;;;;;15.90;8.85;;;5.30;99.90;;;;;;7400519;19;19978;-72
2023/04/08 04:09:31;;;;;;;15.48;7.78;;;5.40;99.90;;;;;;7399973;19;19918;-72
2023/04/08 04:12:00;;;;;;;15.13;8.05;;;5.20;99.90;;;;;;7400162;19;19919;-72
2023/04/08 04:14:29;;;;;;;13.02;8.13;;;4.60;99.90;;;;;;7400366;19;19923;-72
2023/04/08 04:16:59;;;;;;;14.77;8.30;;;5.00;99.90;;;;;;7404253;19;19919;-72
2023/04/08 04:19:32;;;;;;;14.43;8.27;;;5.10;99.90;;;;;;7400561;19;19994;-73
2023/04/08 04:22:06;;;;;;;14.73;8.02;;;5.40;99.90;;;;;;7399797;19;20367;-71
2023/04/08 04:24:36;;;;;;;13.88;8.05;;;4.90;99.90;;;;;;7397570;19;20276;-71
2023/04/08 04:27:05;;;;;;;12.45;8.02;;;5.10;99.90;;;;;;7398512;19;20376;-72
2023/04/08 04:29:44;;;;;;;13.57;7.93;;;5.10;99.90;;;;;;7399531;19;19919;-72
2023/04/08 04:32:22;;;;;;;16.20;8.32;;;5.10;99.90;;;;;;7400399;19;19934;-71
2023/04/08 04:34:51;;;;;;;14.43;8.30;;;5.50;99.90;;;;;;7399054;19;19989;-72
2023/04/08 04:37:23;;;;;;;15.05;7.97;;;5.50;99.90;;;;;;7399461;19;19928;-72
2023/04/08 04:39:52;;;;;;;14.82;7.97;;;5.20;99.90;;;;;;7399027;19;19926;-72
2023/04/08 04:42:21;;;;;;;16.98;8.55;;;5.20;99.90;;;;;;7399656;19;19922;-72
2023/04/08 04:44:50;;;;;;;13.85;8.15;;;4.90;99.90;;;;;;7398740;19;19915;-72
2023/04/08 04:47:19;;;;;;;15.52;8.27;;;5.70;99.90;;;;;;7399140;19;19914;-72
2023/04/08 04:49:48;;;;;;;12.93;7.82;;;5.30;99.90;;;;;;7400458;19;19974;-72
2023/04/08 04:52:17;;;;;;;12.88;8.63;;;6.30;99.90;;;;;;7398765;19;19922;-72
2023/04/08 04:54:49;;;;;;;15.02;8.57;;;5.80;99.90;;;;;;7398797;19;20622;-73
2023/04/08 04:57:18;;;;;;;13.85;8.65;;;5.30;99.90;;;;;;7398117;19;20404;-72
2023/04/08 04:59:47;;;;;;;13.57;7.97;;;5.40;99.90;;;;;;7401973;19;19986;-72
2023/04/08 05:02:16;;;;;;;14.68;8.27;;;5.50;99.90;;;;;;7401489;19;19938;-73
2023/04/08 05:04:45;;;;;;;18.25;9.07;;;6.00;99.90;;;;;;7398671;19;19946;-73
2023/04/08 05:07:14;;;;;;;15.98;9.05;;;5.60;99.90;;;;;;7398933;19;19923;-72
2023/04/08 05:09:45;;;;;;;17.80;9.45;;;5.90;99.90;;;;;;7397912;19;20308;-72
2023/04/08 05:12:19;;;;;;;15.90;8.23;;;6.30;99.90;;;;;;7404018;19;20320;-72
2023/04/08 05:14:48;;;;;;;14.90;8.48;;;5.50;99.90;;;;;;7405074;19;19922;-72
2023/04/08 05:17:17;;;;;;;15.05;8.50;;;5.60;99.90;;;;;;7404497;19;20406;-72
2023/04/08 05:19:46;;;;;;;14.30;8.18;;;5.70;99.90;;;;;;7404637;19;20256;-72
2023/04/08 05:22:15;;;;;;;15.50;8.77;;;6.70;99.90;;;;;;7404673;19;19918;-73
2023/04/08 05:24:44;;;;;;;14.65;8.80;;;5.60;99.90;;;;;;7403182;19;20002;-73
2023/04/08 05:27:18;;;;;;;16.48;9.57;;;5.70;99.90;;;;;;7402225;19;20021;-72
2023/04/08 05:29:47;;;;;;;15.48;9.75;;;6.50;99.90;;;;;;7405016;19;19915;-72
2023/04/08 05:32:17;;;;;;;14.65;8.75;;;5.80;99.90;;;;;;7404114;19;19926;-72
2023/04/08 05:34:46;;;;;;;14.77;8.30;;;5.80;99.90;;;;;;7404896;19;19911;-71
2023/04/08 05:37:16;;;;;;;15.52;9.15;;;5.80;99.90;;;;;;7408848;19;19926;-72
2023/04/08 05:39:45;;;;;;;16.73;8.88;;;6.10;99.90;;;;;;7405215;19;20375;-72
2023/04/08 05:42:14;;;;;;;17.33;8.82;;;5.80;99.90;;;;;;7405165;19;19911;-72
2023/04/08 05:44:46;;;;;;;15.23;9.20;;;6.00;99.90;;;;;;7404935;19;19918;-71
2023/04/08 05:47:15;;;;;;;15.70;8.93;;;5.90;99.90;;;;;;7402165;19;19926;-71
2023/04/08 05:49:44;;;;;;;13.13;8.30;;;6.00;99.90;;;;;;7404738;19;20078;-71
2023/04/08 05:52:13;;;;;;;14.75;8.85;;;6.00;99.90;;;;;;7404462;19;19915;-71
2023/04/08 05:54:45;;;;;;;14.70;8.88;;;6.00;99.90;;;;;;7404094;19;19911;-71
2023/04/08 05:57:15;;;;;;;16.27;9.23;;;6.10;99.90;;;;;;7405735;19;19922;-71
2023/04/08 05:59:47;;;;;;;16.60;9.02;;;6.00;99.90;;;;;;7404194;19;19939;-71
2023/04/08 06:02:16;;;;;;;17.25;8.88;;;6.00;99.90;;;;;;7404109;19;19915;-72
2023/04/08 06:04:45;;;;;;;14.30;8.98;;;6.50;99.90;;;;;;7403595;19;19938;-72
2023/04/08 06:07:14;;;;;;;14.18;8.50;;;6.60;99.90;;;;;;7401882;19;19922;-71
2023/04/08 06:09:43;;;;;;;14.40;8.70;;;7.30;99.90;;;;;;7403932;19;20328;-73
2023/04/08 06:12:12;;;;;;;12.65;8.15;;;6.30;99.90;;;;;;7407490;19;19979;-71
2023/04/08 06:14:41;;;;;;;12.63;8.88;;;7.50;99.90;;;;;;7407223;19;20269;-71
2023/04/08 06:17:13;;;;;;;11.40;7.47;;;6.40;99.90;;;;;;7403179;19;19919;-73
2023/04/08 06:19:52;;;;;;;15.25;8.38;;;6.40;99.90;;;;;;7401385;19;20649;-71
2023/04/08 06:22:21;;;;;;;14.00;8.27;;;6.40;99.90;;;;;;7404096;19;20396;-73
2023/04/08 06:24:50;;;;;;;12.82;8.38;;;6.60;99.90;;;;;;7401294;19;19915;-72
2023/04/08 06:27:19;;;;;;;15.13;8.88;;;6.60;99.90;;;;;;7399829;19;20335;-71
2023/04/08 06:29:49;;;;;;;14.77;8.52;;;6.60;99.90;;;;;;7403724;19;19914;-72
2023/04/08 06:32:25;;;;;;;14.50;8.40;;;6.70;99.90;;;;;;7406403;19;19957;-72
2023/04/08 06:34:56;;;;;;;15.48;8.82;;;7.40;99.90;;;;;;7403023;19;19923;-72
2023/04/08 06:37:25;;;;;;;15.00;9.07;;;7.20;99.90;;;;;;7402972;19;19914;-72
2023/04/08 06:39:54;;;;;;;15.95;9.35;;;6.70;99.90;;;;;;7403537;19;19914;-72
2023/04/08 06:42:23;;;;;;;17.40;10.73;;;8.70;99.90;;;;;;7403036;19;19923;-72
2023/04/08 06:44:52;;;;;;;15.05;9.15;;;6.60;99.90;;;;;;7403283;19;19915;-72
2023/04/08 06:47:21;;;;;;;14.93;9.10;;;6.80;99.90;;;;;;7404201;19;19938;-72
2023/04/08 06:49:53;;;;;;;18.20;10.07;;;6.60;99.90;;;;;;7406565;19;20355;-72
2023/04/08 06:52:21;;;;;;;;;;;6.80;99.90;;;;;;7405512;19;19935;-72
2023/04/08 06:54:52;;;;;;;13.80;8.45;;;7.70;99.90;;;;;;7401604;19;19942;-72
2023/04/08 06:57:21;;;;;;;14.38;9.23;;;6.70;99.90;;;;;;7402371;19;19919;-72
2023/04/08 06:59:51;;;;;;;13.82;9.25;;;6.70;99.90;;;;;;7402133;19;19966;-73
2023/04/08 07:02:21;;;;;;;15.07;8.88;;;7.00;99.90;;;;;;7402304;19;19966;-72
2023/04/08 07:04:53;;;;;;;15.70;8.45;;;7.70;99.90;;;;;;7402707;19;19935;-71
2023/04/08 07:07:23;;;;;;;14.27;8.52;;;7.40;99.90;;;;;;7400799;19;20262;-71
2023/04/08 07:09:52;;;;;;;13.13;8.30;;;6.70;99.90;;;;;;7401403;19;20320;-71
2023/04/08 07:12:21;;;;;;;14.32;8.65;;;6.70;99.90;;;;;;7406590;19;19919;-71
2023/04/08 07:14:50;;;;;;;13.15;7.75;;;7.90;99.90;;;;;;7406348;19;19922;-72
2023/04/08 07:17:19;;;;;;;14.52;7.88;;;6.60;99.90;;;;;;7401577;19;19928;-71
2023/04/08 07:19:52;;;;;;;14.27;7.28;;;7.80;99.90;;;;;;7400572;19;19926;-71
2023/04/08 07:22:21;;;;;;;12.85;6.78;;;6.80;99.90;;;;;;7403056;19;19991;-72
2023/04/08 07:24:50;;;;;;;12.48;7.28;;;6.90;99.90;;;;;;7400238;19;19937;-72
2023/04/08 07:27:20;;;;;;;12.25;6.57;;;6.80;99.90;;;;;;7400223;19;20312;-71
2023/04/08 07:29:53;;;;;;;13.63;7.35;;;6.80;99.90;;;;;;7401774;19;19911;-71
2023/04/08 07:32:23;;;;;;;13.75;8.07;;;6.70;99.90;;;;;;7401433;19;19914;-71
2023/04/08 07:34:55;;;;;;;13.05;7.22;;;7.80;99.90;;;;;;7399859;19;20160;-72
2023/04/08 07:37:24;;;;;;;13.75;7.43;;;7.00;99.90;;;;;;7401008;19;19998;-71
2023/04/08 07:39:54;;;;;;;14.70;7.53;;;6.90;99.90;;;;;;7403496;19;19931;-71
2023/04/08 07:42:23;;;;;;;14.27;7.18;;;7.10;99.90;;;;;;7400948;19;19914;-71
2023/04/08 07:44:52;;;;;;;13.20;6.72;;;7.00;99.90;;;;;;7401580;19;19907;-71
2023/04/08 07:47:21;;;;;;;14.43;7.45;;;7.00;99.90;;;;;;7400040;19;19919;-72
2023/04/08 07:49:50;;;;;;;10.95;6.00;;;7.10;99.90;;;;;;7400943;19;19939;-72
2023/04/08 07:52:22;;;;;;;11.90;6.40;;;7.10;99.90;;;;;;7400753;19;19910;-72
2023/04/08 07:54:51;;;;;;;11.63;6.32;;;7.10;99.90;;;;;;7400419;19;19938;-71
2023/04/08 07:57:20;;;;;;;10.85;6.63;;;7.10;99.90;;;;;;7403294;19;20364;-71
2023/04/08 07:59:49;;;;;;;13.05;6.18;;;7.00;99.90;;;;;;7400493;19;19927;-72
2023/04/08 08:02:18;;;;;;;11.13;6.15;;;7.20;99.90;;;;;;7400432;19;19931;-71
2023/04/08 08:04:47;;;;;;;9.73;5.88;;;7.80;99.90;;;;;;7400636;19;19927;-71
2023/04/08 08:07:16;;;;;;;7.63;5.25;;;7.40;99.90;;;;;;7399506;19;19922;-72
2023/04/08 08:09:48;;;;;;;7.50;4.55;;;7.30;99.90;;;;;;7399950;19;19914;-71
2023/04/08 08:12:28;;;;;;;9.27;5.38;;;7.40;99.90;;;;;;7400038;19;20310;-71
2023/04/08 08:14:58;;;;;;;9.90;5.53;;;8.10;99.90;;;;;;7404177;19;20545;-72
2023/04/08 08:17:29;;;;;;;9.70;6.10;;;7.60;99.90;;;;;;7400013;19;19922;-71
2023/04/08 08:19:59;;;;;;;8.52;5.47;;;7.60;99.90;;;;;;7399873;19;19919;-72
2023/04/08 08:22:28;;;;;;;10.00;5.25;;;7.70;99.90;;;;;;7399457;19;20697;-71
2023/04/08 08:25:00;;;;;;;9.00;5.47;;;7.80;99.90;;;;;;7397826;19;19942;-72
2023/04/08 08:27:29;;;;;;;9.80;5.57;;;7.80;99.90;;;;;;7398515;19;19913;-72
2023/04/08 08:29:58;;;;;;;9.23;5.85;;;7.90;99.90;;;;;;7399932;19;19974;-72
2023/04/08 08:32:28;;;;;;;9.88;5.75;;;7.80;99.90;;;;;;7399142;19;19954;-71
2023/04/08 08:34:57;;;;;;;11.20;5.90;;;7.90;99.90;;;;;;7399345;19;19990;-71
2023/04/08 08:37:27;;;;;;;11.65;6.72;;;8.00;99.90;;;;;;7398918;19;19919;-71
2023/04/08 08:39:56;;;;;;;12.18;6.03;;;8.00;99.90;;;;;;7399040;19;20263;-72
2023/04/08 08:42:28;;;;;;;10.00;6.28;;;8.00;99.90;;;;;;7398890;19;19919;-71
2023/04/08 08:44:57;;;;;;;10.27;6.20;;;7.90;99.90;;;;;;7402173;19;19934;-71
2023/04/08 08:47:40;;;;;;;10.75;6.78;;;8.00;99.90;;;;;;7408867;19;19933;-72
2023/04/08 08:50:10;;;;;;;11.10;6.57;;;8.10;99.90;;;;;;7409868;19;19958;-73
2023/04/08 08:52:39;;;;;;;10.52;7.03;;;8.00;99.90;;;;;;7405762;19;20471;-71
2023/04/08 08:55:08;;;;;;;13.50;7.60;;;8.40;99.90;;;;;;7405079;19;20297;-71
2023/04/08 08:57:40;;;;;;;11.82;7.07;;;8.00;99.90;;;;;;7405509;19;19929;-71
2023/04/08 09:00:11;;;;;;;11.98;7.05;;;8.20;99.90;;;;;;7407359;19;19926;-71
2023/04/08 09:02:46;;;;;;;16.13;7.32;;;8.10;99.90;;;;;;7405479;19;19915;-72
2023/04/08 09:05:15;;;;;;;13.73;8.20;;;8.20;99.90;;;;;;7408532;19;19978;-71
2023/04/08 09:07:45;;;;;;;12.93;7.63;;;8.30;99.90;;;;;;7403179;19;19915;-72
2023/04/08 09:10:14;;;;;;;13.90;7.30;;;8.30;99.90;;;;;;7405464;19;20010;-72
2023/04/08 09:12:59;;;;;;;16.98;7.60;;;8.40;99.90;;;;;;7405099;19;19915;-72
2023/04/08 09:15:32;;;;;;;16.02;8.52;;;8.50;99.90;;;;;;7405076;19;19914;-72
2023/04/08 09:18:01;;;;;;;14.95;8.63;;;10.00;99.90;;;;;;7405358;19;19954;-71
2023/04/08 09:20:30;;;;;;;13.18;7.65;;;8.80;99.90;;;;;;7405342;19;19923;-72
2023/04/08 09:23:05;;;;;;;15.57;8.05;;;9.00;99.90;;;;;;7405184;19;19935;-72
2023/04/08 09:25:37;;;;;;;15.10;8.68;;;9.00;99.90;;;;;;7401301;19;20339;-72
2023/04/08 09:28:21;;;;;;;15.02;8.10;;;8.90;99.90;;;;;;7402868;19;20316;-72
2023/04/08 09:30:51;;;;;;;14.02;8.07;;;9.00;99.90;;;;;;7406853;19;19931;-72
2023/04/08 09:33:20;;;;;;;15.45;8.07;;;8.90;99.90;;;;;;7403649;19;19922;-72
2023/04/08 09:35:50;;;;;;;16.77;7.93;;;9.00;99.90;;;;;;7404139;19;20310;-72
2023/04/08 09:38:19;;;;;;;15.90;9.25;;;10.00;99.90;;;;;;7405488;19;19915;-72
2023/04/08 09:40:48;;;;;;;17.33;9.07;;;9.60;99.90;;;;;;7404516;19;19919;-72
2023/04/08 09:43:25;;;;;;;18.70;9.77;;;9.00;99.90;;;;;;7407233;19;19914;-71
2023/04/08 09:45:57;;;;;;;18.65;9.50;;;8.70;99.90;;;;;;7407310;19;20336;-72
2023/04/08 09:48:31;;;;;;;17.52;9.18;;;8.90;99.90;;;;;;7405677;19;19978;-72
2023/04/08 09:51:02;;;;;;;16.88;8.82;;;8.90;99.90;;;;;;7404116;19;19914;-72
2023/04/08 09:53:40;;;;;;;20.60;10.82;;;9.00;99.90;;;;;;7403602;19;19923;-72
2023/04/08 09:56:12;;;;;;;18.52;9.63;;;9.00;99.90;;;;;;7405703;19;19918;-73
2023/04/08 09:58:47;;;;;;;;;;;8.90;99.90;;;;;;7406206;19;20350;-73
2023/04/08 10:01:18;;;;;;;21.02;10.45;;;8.90;99.90;;;;;;7402826;19;19915;-72
2023/04/08 10:03:53;;;;;;;21.25;10.30;;;9.00;99.90;;;;;;7403226;19;20354;-72
2023/04/08 10:06:23;;;;;;;23.75;12.60;;;8.90;99.90;;;;;;7403434;19;19914;-72
2023/04/08 10:08:53;;;;;;;23.70;11.35;;;8.90;99.90;;;;;;7400044;19;19919;-72
2023/04/08 10:11:22;;;;;;;23.98;12.55;;;8.90;99.90;;;;;;7403915;19;19919;-72
2023/04/08 10:13:54;;;;;;;23.88;12.57;;;9.10;99.90;;;;;;7407541;19;19918;-72
2023/04/08 10:16:26;;;;;;;22.65;12.32;;;9.00;99.90;;;;;;7403600;19;19948;-72
2023/04/08 10:18:57;;;;;;;21.45;11.30;;;8.90;99.90;;;;;;7402950;19;19915;-72
2023/04/08 10:21:42;;;;;;;22.65;11.43;;;9.00;99.90;;;;;;7403065;19;19924;-72
2023/04/08 10:24:12;;;;;;;21.42;11.48;;;8.90;99.90;;;;;;7401732;19;19942;-72
2023/04/08 10:26:43;;;;;;;25.00;12.68;;;8.80;99.90;;;;;;7400982;19;19922;-72
2023/04/08 10:29:47;;;;;;;23.20;11.18;;;8.90;99.90;;;;;;7403744;19;20257;-71
2023/04/08 10:32:42;;;;;;;23.08;12.02;;;8.80;99.90;;;;;;7402632;19;19922;-71
2023/04/08 10:35:12;;;;;;;23.02;12.70;;;8.80;99.90;;;;;;7403023;19;19990;-71
2023/04/08 10:37:41;;;;;;;29.67;13.98;;;8.90;99.90;;;;;;7402528;19;19915;-71
2023/04/08 10:40:21;;;;;;;21.90;11.90;;;8.70;99.90;;;;;;7402324;19;19929;-71
2023/04/08 10:42:56;;;;;;;21.13;10.93;;;8.70;99.90;;;;;;7402649;19;19919;-72
2023/04/08 10:45:26;;;;;;;26.55;14.13;;;8.80;99.90;;;;;;7403648;19;19925;-71
2023/04/08 10:47:58;;;;;;;29.30;14.15;;;9.00;99.90;;;;;;7405327;19;20256;-72
2023/04/08 10:50:27;;;;;;;19.15;10.00;;;8.90;99.90;;;;;;7401989;19;19938;-73
2023/04/08 10:52:56;;;;;;;23.17;11.20;;;8.90;99.90;;;;;;7402070;19;19974;-72
2023/04/08 10:55:26;;;;;;;21.48;12.57;;;9.10;99.90;;;;;;7402328;19;19942;-73
2023/04/08 10:57:55;;;;;;;23.63;11.27;;;9.10;99.90;;;;;;7402228;19;20753;-71
2023/04/08 11:00:35;;;;;;;27.25;14.15;;;9.10;99.90;;;;;;7402374;19;19966;-71
2023/04/08 11:03:10;;;;;;;22.95;12.45;;;9.20;99.90;;;;;;7403596;19;19919;-71
2023/04/08 11:05:40;;;;;;;27.33;14.88;;;9.10;99.90;;;;;;7401690;19;19918;-74
2023/04/08 11:08:09;;;;;;;30.25;14.73;;;9.20;99.90;;;;;;7397889;19;19918;-72
2023/04/08 11:10:41;;;;;;;25.70;14.20;;;9.30;99.90;;;;;;7400593;19;20007;-72
2023/04/08 11:13:11;;;;;;;22.80;12.32;;;9.20;99.90;;;;;;7401565;19;20288;-73
2023/04/08 11:15:40;;;;;;;25.80;13.32;;;9.30;99.90;;;;;;7401748;19;20408;-73
2023/04/08 11:18:13;;;;;;;27.98;15.25;;;9.30;99.90;;;;;;7401621;19;19915;-72
2023/04/08 11:20:42;;;;;;;33.47;14.93;;;9.20;99.90;;;;;;7403265;19;19933;-73
2023/04/08 11:23:17;;;;;;;26.30;13.55;;;9.20;99.90;;;;;;7401418;19;19921;-72
2023/04/08 11:25:48;;;;;;;25.92;14.15;;;9.30;99.90;;;;;;7400405;19;19934;-72
2023/04/08 11:28:17;;;;;;;25.63;14.20;;;9.20;99.90;;;;;;7400495;19;19921;-72
2023/04/08 11:30:47;;;;;;;27.23;14.23;;;9.20;99.90;;;;;;7405429;19;19926;-73
2023/04/08 11:33:18;;;;;;;22.85;12.77;;;9.30;99.90;;;;;;7401106;19;19918;-73
2023/04/08 11:35:52;;;;;;;25.27;13.38;;;9.40;99.90;;;;;;7401745;19;19918;-73
2023/04/08 11:38:25;;;;;;;27.30;14.38;;;9.40;99.90;;;;;;7404975;19;19918;-73
2023/04/08 11:40:58;;;;;;;26.25;13.80;;;9.40;99.90;;;;;;7404435;19;19922;-72
2023/04/08 11:43:28;;;;;;;21.73;12.57;;;9.60;99.90;;;;;;7400430;19;19943;-73
2023/04/08 11:45:57;;;;;;;31.15;15.98;;;9.50;99.90;;;;;;7403955;19;20517;-72
2023/04/08 11:48:32;;;;;;;29.60;18.63;;;7.80;99.90;;;;;;7402695;19;19921;-72
2023/04/08 11:51:07;;;;;;;30.25;17.63;;;9.70;99.90;;;;;;7397999;19;19914;-73
2023/04/08 11:53:38;;;;;;;32.00;17.55;;;9.60;99.90;;;;;;7399614;19;20503;-71
2023/04/08 11:56:21;;;;;;;27.83;15.95;;;9.80;99.90;;;;;;7399997;19;19918;-71
2023/04/08 11:59:08;;;;;;;29.05;17.45;;;9.70;99.90;;;;;;7399416;19;19929;-71
2023/04/08 12:01:38;;;;;;;28.42;16.92;;;9.70;99.90;;;;;;7399733;19;19917;-71
2023/04/08 12:04:11;;;;;;;26.08;16.15;;;9.60;99.90;;;;;;7399661;19;19942;-71
2023/04/08 12:06:42;;;;;;;33.22;18.50;;;9.80;99.90;;;;;;7397751;19;19925;-71
2023/04/08 12:09:11;;;;;;;34.53;20.92;;;9.60;99.90;;;;;;7398584;19;19910;-71
2023/04/08 12:11:40;;;;;;;34.95;19.58;;;9.80;99.90;;;;;;7401667;19;19938;-71
2023/04/08 12:14:09;;;;;;;35.75;20.35;;;9.70;99.90;;;;;;7399928;19;20343;-71
2023/04/08 12:16:38;;;;;;;39.70;21.55;;;9.70;99.90;;;;;;7399506;19;19918;-71
2023/04/08 12:19:10;;;;;;;40.63;21.92;;;9.80;99.90;;;;;;7399352;19;19914;-71
2023/04/08 12:21:39;;;;;;;36.30;20.83;;;9.70;99.90;;;;;;7399720;19;20446;-71
2023/04/08 12:24:08;;;;;;;36.35;20.65;;;9.90;99.90;;;;;;7397923;19;19915;-71
2023/04/08 12:26:37;;;;;;;36.90;21.63;;;9.90;99.90;;;;;;7399159;19;19931;-71
2023/04/08 12:29:08;;;;;;;38.80;22.10;;;9.90;99.90;;;;;;7400662;19;19955;-71
2023/04/08 12:31:37;;;;;;;35.80;21.52;;;10.00;99.90;;;;;;7399212;19;19911;-71
2023/04/08 12:34:06;;;;;;;42.10;22.65;;;10.00;99.90;;;;;;7398491;19;19911;-71
2023/04/08 12:36:38;;;;;;;36.88;22.50;;;9.90;99.90;;;;;;7398749;19;19915;-71
2023/04/08 12:39:07;;;;;;;39.15;23.75;;;10.20;99.90;;;;;;7401641;19;19914;-71
2023/04/08 12:41:36;;;;;;;43.15;24.15;;;10.20;99.90;;;;;;7398676;19;19978;-71
2023/04/08 12:44:05;;;;;;;42.70;24.55;;;10.30;99.90;;;;;;7398326;19;19978;-71
2023/04/08 12:46:34;;;;;;;38.80;23.98;;;10.30;99.90;;;;;;7402832;19;19921;-72
2023/04/08 12:49:07;;;;;;;50.72;26.63;;;10.30;99.90;;;;;;7401744;19;20380;-72
2023/04/08 12:51:39;;;;;;;44.22;26.02;;;10.40;99.90;;;;;;7398289;19;19923;-71
2023/04/08 12:54:08;;;;;;;;;;;10.30;99.90;;;;;;7400779;19;19910;-71
2023/04/08 12:56:37;;;;;;;45.33;25.88;;;10.50;99.90;;;;;;7398063;19;19974;-71
2023/04/08 12:59:06;;;;;;;46.50;27.50;;;10.40;99.90;;;;;;7398890;19;19926;-71
2023/04/08 13:01:35;;;;;;;53.30;28.52;;;10.40;99.90;;;;;;7398097;19;19931;-71
2023/04/08 13:04:05;;;;;;;50.08;29.17;;;10.40;99.90;;;;;;7402904;19;19918;-71
2023/04/08 13:06:34;;;;;;;48.85;29.52;;;10.40;99.90;;;;;;7398151;19;19929;-71